sensor_id;sensor_type;location;lat;lon;timestamp;temperature;humidity
13850;DHT22;6995;52.618;13.488;2023-09-08T00:01:27;17.70;99.90
13850;DHT22;6995;52.618;13.488;2023-09-08T00:03:53;17.70;99.90
13850;DHT22;6995;52.618;13.488;2023-09-08T00:06:18;17.70;99.90
13850;DHT22;6995;52.618;13.488;2023-09-08T00:08:44;17.70;99.90
13850;DHT22;6995;52.618;13.488;2023-09-08T00:11:09;17.70;99.90
13850;DHT22;6995;52.618;13.488;2023-09-08T00:13:35;17.70;99.90
13850;DHT22;6995;52.618;13.488;2023-09-08T00:16:01;17.80;99.90
13850;DHT22;6995;52.618;13.488;2023-09-08T00:18:26;17.80;99.90
13850;DHT22;6995;52.618;13.488;2023-09-08T00:20:52;17.80;98.90
13850;DHT22;6995;52.618;13.488;2023-09-08T00:23:17;17.80;99.90
13850;DHT22;6995;52.618;13.488;2023-09-08T00:25:43;17.80;99.90
13850;DHT22;6995;52.618;13.488;2023-09-08T00:28:09;17.80;99.00
13850;DHT22;6995;52.618;13.488;2023-09-08T00:30:34;17.80;99.20
13850;DHT22;6995;52.618;13.488;2023-09-08T00:33:00;17.80;99.90
13850;DHT22;6995;52.618;13.488;2023-09-08T00:35:25;17.80;99.90
13850;DHT22;6995;52.618;13.488;2023-09-08T00:37:51;17.70;99.90
13850;DHT22;6995;52.618;13.488;2023-09-08T00:40:17;17.80;99.10
13850;DHT22;6995;52.618;13.488;2023-09-08T00:42:43;17.80;99.40
13850;DHT22;6995;52.618;13.488;2023-09-08T00:45:08;17.80;99.90
13850;DHT22;6995;52.618;13.488;2023-09-08T00:47:34;17.80;99.90
13850;DHT22;6995;52.618;13.488;2023-09-08T00:50:02;17.70;99.90
13850;DHT22;6995;52.618;13.488;2023-09-08T00:52:28;17.70;99.90
13850;DHT22;6995;52.618;13.488;2023-09-08T00:54:58;17.60;99.90
13850;DHT22;6995;52.618;13.488;2023-09-08T00:57:24;17.60;99.90
13850;DHT22;6995;52.618;13.488;2023-09-08T00:59:50;17.50;99.90
13850;DHT22;6995;52.618;13.488;2023-09-08T01:02:15;17.50;99.90
13850;DHT22;6995;52.618;13.488;2023-09-08T01:04:41;17.40;99.90
13850;DHT22;6995;52.618;13.488;2023-09-08T01:07:08;17.40;99.90
13850;DHT22;6995;52.618;13.488;2023-09-08T01:09:35;17.40;99.90
13850;DHT22;6995;52.618;13.488;2023-09-08T01:12:03;17.40;99.90
13850;DHT22;6995;52.618;13.488;2023-09-08T01:14:31;17.40;99.90
13850;DHT22;6995;52.618;13.488;2023-09-08T01:16:56;17.30;99.90
13850;DHT22;6995;52.618;13.488;2023-09-08T01:19:22;17.30;99.90
13850;DHT22;6995;52.618;13.488;2023-09-08T01:27:37;17.20;99.90
13850;DHT22;6995;52.618;13.488;2023-09-08T01:30:05;17.20;99.90
13850;DHT22;6995;52.618;13.488;2023-09-08T01:32:32;17.20;99.90
13850;DHT22;6995;52.618;13.488;2023-09-08T01:34:58;17.10;99.90
13850;DHT22;6995;52.618;13.488;2023-09-08T01:37:25;17.10;99.90
13850;DHT22;6995;52.618;13.488;2023-09-08T01:39:51;17.10;99.90
13850;DHT22;6995;52.618;13.488;2023-09-08T01:42:16;17.10;99.90
13850;DHT22;6995;52.618;13.488;2023-09-08T01:44:42;17.10;99.90
13850;DHT22;6995;52.618;13.488;2023-09-08T01:47:07;17.10;99.90
13850;DHT22;6995;52.618;13.488;2023-09-08T01:49:33;17.10;99.90
13850;DHT22;6995;52.618;13.488;2023-09-08T01:51:59;17.10;99.90
13850;DHT22;6995;52.618;13.488;2023-09-08T01:54:24;17.10;99.90
13850;DHT22;6995;52.618;13.488;2023-09-08T01:56:50;17.10;99.90
13850;DHT22;6995;52.618;13.488;2023-09-08T01:59:16;17.10;99.90
13850;DHT22;6995;52.618;13.488;2023-09-08T02:01:42;17.10;99.90
13850;DHT22;6995;52.618;13.488;2023-09-08T02:04:08;17.10;99.90
13850;DHT22;6995;52.618;13.488;2023-09-08T02:06:33;17.10;99.90
13850;DHT22;6995;52.618;13.488;2023-09-08T02:08:59;17.10;99.90
13850;DHT22;6995;52.618;13.488;2023-09-08T02:11:24;17.10;99.90
13850;DHT22;6995;52.618;13.488;2023-09-08T02:13:51;17.10;99.90
13850;DHT22;6995;52.618;13.488;2023-09-08T02:16:17;17.00;99.90
13850;DHT22;6995;52.618;13.488;2023-09-08T02:18:43;17.00;99.90
13850;DHT22;6995;52.618;13.488;2023-09-08T02:21:09;16.90;99.90
13850;DHT22;6995;52.618;13.488;2023-09-08T02:23:35;16.90;99.90
13850;DHT22;6995;52.618;13.488;2023-09-08T02:26:00;16.90;99.90
13850;DHT22;6995;52.618;13.488;2023-09-08T02:28:26;17.00;99.90
13850;DHT22;6995;52.618;13.488;2023-09-08T02:30:52;16.90;99.90
13850;DHT22;6995;52.618;13.488;2023-09-08T02:33:17;17.00;99.90
13850;DHT22;6995;52.618;13.488;2023-09-08T02:35:43;16.90;99.90
13850;DHT22;6995;52.618;13.488;2023-09-08T02:38:09;16.90;99.90
13850;DHT22;6995;52.618;13.488;2023-09-08T02:40:35;16.90;99.90
13850;DHT22;6995;52.618;13.488;2023-09-08T02:43:01;16.90;99.90
13850;DHT22;6995;52.618;13.488;2023-09-08T02:45:27;17.00;99.90
13850;DHT22;6995;52.618;13.488;2023-09-08T02:47:53;17.00;99.90
13850;DHT22;6995;52.618;13.488;2023-09-08T02:50:18;17.00;99.90
13850;DHT22;6995;52.618;13.488;2023-09-08T02:52:44;17.00;99.90
13850;DHT22;6995;52.618;13.488;2023-09-08T02:55:10;17.00;99.90
13850;DHT22;6995;52.618;13.488;2023-09-08T02:57:37;17.00;99.90
13850;DHT22;6995;52.618;13.488;2023-09-08T03:00:03;17.00;99.90
13850;DHT22;6995;52.618;13.488;2023-09-08T03:02:30;17.00;99.90
13850;DHT22;6995;52.618;13.488;2023-09-08T03:04:56;17.10;99.90
13850;DHT22;6995;52.618;13.488;2023-09-08T03:07:22;17.10;99.90
13850;DHT22;6995;52.618;13.488;2023-09-08T03:09:48;17.10;99.90
13850;DHT22;6995;52.618;13.488;2023-09-08T03:12:13;17.00;99.90
13850;DHT22;6995;52.618;13.488;2023-09-08T03:14:39;17.00;99.90
13850;DHT22;6995;52.618;13.488;2023-09-08T03:17:05;17.00;99.90
13850;DHT22;6995;52.618;13.488;2023-09-08T03:19:30;17.00;99.90
13850;DHT22;6995;52.618;13.488;2023-09-08T03:21:56;17.00;99.90
13850;DHT22;6995;52.618;13.488;2023-09-08T03:24:22;17.00;99.90
13850;DHT22;6995;52.618;13.488;2023-09-08T03:26:47;16.90;99.90
13850;DHT22;6995;52.618;13.488;2023-09-08T03:29:13;16.80;99.90
13850;DHT22;6995;52.618;13.488;2023-09-08T03:31:38;16.90;99.90
13850;DHT22;6995;52.618;13.488;2023-09-08T03:34:04;16.80;99.90
13850;DHT22;6995;52.618;13.488;2023-09-08T03:36:30;16.80;99.90
13850;DHT22;6995;52.618;13.488;2023-09-08T03:38:56;16.80;99.90
13850;DHT22;6995;52.618;13.488;2023-09-08T03:41:23;16.70;99.90
13850;DHT22;6995;52.618;13.488;2023-09-08T03:43:49;16.70;99.90
13850;DHT22;6995;52.618;13.488;2023-09-08T03:46:15;16.60;99.90
13850;DHT22;6995;52.618;13.488;2023-09-08T03:48:40;16.60;99.90
13850;DHT22;6995;52.618;13.488;2023-09-08T03:51:06;16.70;99.90
13850;DHT22;6995;52.618;13.488;2023-09-08T03:53:32;16.60;99.90
13850;DHT22;6995;52.618;13.488;2023-09-08T03:55:57;16.60;99.90
13850;DHT22;6995;52.618;13.488;2023-09-08T03:58:23;16.60;99.90
13850;DHT22;6995;52.618;13.488;2023-09-08T04:00:49;16.60;99.90
13850;DHT22;6995;52.618;13.488;2023-09-08T04:03:14;16.50;99.90
13850;DHT22;6995;52.618;13.488;2023-09-08T04:05:40;16.50;99.90
13850;DHT22;6995;52.618;13.488;2023-09-08T04:08:05;16.50;99.90
13850;DHT22;6995;52.618;13.488;2023-09-08T04:10:31;16.40;99.90
13850;DHT22;6995;52.618;13.488;2023-09-08T04:12:57;16.50;99.90
13850;DHT22;6995;52.618;13.488;2023-09-08T04:15:22;16.40;99.90
13850;DHT22;6995;52.618;13.488;2023-09-08T04:17:48;16.30;99.90
13850;DHT22;6995;52.618;13.488;2023-09-08T04:20:14;16.30;99.90
13850;DHT22;6995;52.618;13.488;2023-09-08T04:22:42;16.30;99.90
13850;DHT22;6995;52.618;13.488;2023-09-08T04:25:09;16.30;99.90
13850;DHT22;6995;52.618;13.488;2023-09-08T04:27:35;16.20;99.90
13850;DHT22;6995;52.618;13.488;2023-09-08T04:30:03;16.20;99.90
13850;DHT22;6995;52.618;13.488;2023-09-08T04:32:28;16.20;99.90
13850;DHT22;6995;52.618;13.488;2023-09-08T04:34:54;16.20;99.90
13850;DHT22;6995;52.618;13.488;2023-09-08T04:37:19;16.20;99.90
13850;DHT22;6995;52.618;13.488;2023-09-08T04:39:45;16.20;99.90
13850;DHT22;6995;52.618;13.488;2023-09-08T04:42:11;16.20;99.90
13850;DHT22;6995;52.618;13.488;2023-09-08T04:44:38;16.30;99.90
13850;DHT22;6995;52.618;13.488;2023-09-08T04:47:04;16.30;99.90
13850;DHT22;6995;52.618;13.488;2023-09-08T04:49:30;16.30;99.90
13850;DHT22;6995;52.618;13.488;2023-09-08T04:51:56;16.30;99.90
13850;DHT22;6995;52.618;13.488;2023-09-08T04:54:22;16.40;99.90
13850;DHT22;6995;52.618;13.488;2023-09-08T04:56:53;16.40;99.90
13850;DHT22;6995;52.618;13.488;2023-09-08T04:59:20;16.40;99.90
13850;DHT22;6995;52.618;13.488;2023-09-08T05:01:46;16.40;99.90
13850;DHT22;6995;52.618;13.488;2023-09-08T05:04:11;16.40;99.90
13850;DHT22;6995;52.618;13.488;2023-09-08T05:06:37;16.50;99.90
13850;DHT22;6995;52.618;13.488;2023-09-08T05:09:03;16.50;99.90
13850;DHT22;6995;52.618;13.488;2023-09-08T05:11:28;16.50;99.90
13850;DHT22;6995;52.618;13.488;2023-09-08T05:13:54;16.50;99.90
13850;DHT22;6995;52.618;13.488;2023-09-08T05:16:20;16.60;99.90
13850;DHT22;6995;52.618;13.488;2023-09-08T05:19:02;16.60;99.90
13850;DHT22;6995;52.618;13.488;2023-09-08T05:21:28;16.70;99.90
13850;DHT22;6995;52.618;13.488;2023-09-08T05:23:53;16.70;99.90
13850;DHT22;6995;52.618;13.488;2023-09-08T05:26:20;16.80;99.90
13850;DHT22;6995;52.618;13.488;2023-09-08T05:28:45;16.80;99.90
13850;DHT22;6995;52.618;13.488;2023-09-08T05:31:11;16.80;99.90
13850;DHT22;6995;52.618;13.488;2023-09-08T05:33:37;16.90;99.90
13850;DHT22;6995;52.618;13.488;2023-09-08T05:36:02;16.90;99.90
13850;DHT22;6995;52.618;13.488;2023-09-08T05:38:28;16.90;99.90
13850;DHT22;6995;52.618;13.488;2023-09-08T05:40:54;17.00;99.90
13850;DHT22;6995;52.618;13.488;2023-09-08T05:43:19;17.00;99.90
13850;DHT22;6995;52.618;13.488;2023-09-08T05:45:45;17.10;99.90
13850;DHT22;6995;52.618;13.488;2023-09-08T05:48:10;17.30;99.90
13850;DHT22;6995;52.618;13.488;2023-09-08T05:50:36;17.40;99.90
13850;DHT22;6995;52.618;13.488;2023-09-08T05:53:02;17.50;99.90
13850;DHT22;6995;52.618;13.488;2023-09-08T05:55:28;17.60;99.90
13850;DHT22;6995;52.618;13.488;2023-09-08T05:57:53;17.70;99.90
13850;DHT22;6995;52.618;13.488;2023-09-08T06:00:24;17.80;99.90
13850;DHT22;6995;52.618;13.488;2023-09-08T06:02:49;18.00;99.90
13850;DHT22;6995;52.618;13.488;2023-09-08T06:05:15;18.10;99.90
13850;DHT22;6995;52.618;13.488;2023-09-08T06:07:40;18.20;99.90
13850;DHT22;6995;52.618;13.488;2023-09-08T06:10:06;18.30;99.90
13850;DHT22;6995;52.618;13.488;2023-09-08T06:12:32;18.40;99.90
13850;DHT22;6995;52.618;13.488;2023-09-08T06:14:58;18.40;99.90
13850;DHT22;6995;52.618;13.488;2023-09-08T06:17:23;18.50;99.90
13850;DHT22;6995;52.618;13.488;2023-09-08T06:19:49;18.60;99.90
13850;DHT22;6995;52.618;13.488;2023-09-08T06:22:15;18.70;99.90
13850;DHT22;6995;52.618;13.488;2023-09-08T06:24:40;18.80;99.90
13850;DHT22;6995;52.618;13.488;2023-09-08T06:27:06;18.90;99.90
13850;DHT22;6995;52.618;13.488;2023-09-08T06:29:32;19.00;99.90
13850;DHT22;6995;52.618;13.488;2023-09-08T06:31:58;19.10;99.90
13850;DHT22;6995;52.618;13.488;2023-09-08T06:34:23;19.20;99.90
13850;DHT22;6995;52.618;13.488;2023-09-08T06:36:49;19.20;99.90
13850;DHT22;6995;52.618;13.488;2023-09-08T06:39:15;19.40;99.90
13850;DHT22;6995;52.618;13.488;2023-09-08T06:41:40;19.40;99.90
13850;DHT22;6995;52.618;13.488;2023-09-08T06:44:06;19.50;99.90
13850;DHT22;6995;52.618;13.488;2023-09-08T06:46:32;19.40;99.90
13850;DHT22;6995;52.618;13.488;2023-09-08T06:48:58;19.50;99.90
13850;DHT22;6995;52.618;13.488;2023-09-08T06:51:23;19.60;98.30
13850;DHT22;6995;52.618;13.488;2023-09-08T06:53:56;19.70;99.90
13850;DHT22;6995;52.618;13.488;2023-09-08T06:56:23;19.90;90.30
13850;DHT22;6995;52.618;13.488;2023-09-08T06:58:49;20.00;91.20
13850;DHT22;6995;52.618;13.488;2023-09-08T07:01:14;20.20;86.50
13850;DHT22;6995;52.618;13.488;2023-09-08T07:03:40;20.20;80.80
13850;DHT22;6995;52.618;13.488;2023-09-08T07:06:06;20.30;78.30
13850;DHT22;6995;52.618;13.488;2023-09-08T07:08:31;20.40;72.70
13850;DHT22;6995;52.618;13.488;2023-09-08T07:10:57;20.50;99.90
13850;DHT22;6995;52.618;13.488;2023-09-08T07:13:23;20.70;70.00
13850;DHT22;6995;52.618;13.488;2023-09-08T07:15:48;20.90;64.90
13850;DHT22;6995;52.618;13.488;2023-09-08T07:18:14;21.20;62.00
13850;DHT22;6995;52.618;13.488;2023-09-08T07:20:39;21.30;56.20
13850;DHT22;6995;52.618;13.488;2023-09-08T07:23:06;21.40;52.30
13850;DHT22;6995;52.618;13.488;2023-09-08T07:25:32;21.50;52.80
13850;DHT22;6995;52.618;13.488;2023-09-08T07:27:57;21.60;51.00
13850;DHT22;6995;52.618;13.488;2023-09-08T07:30:23;21.70;47.80
13850;DHT22;6995;52.618;13.488;2023-09-08T07:32:48;21.90;42.00
13850;DHT22;6995;52.618;13.488;2023-09-08T07:35:14;22.00;35.60
13850;DHT22;6995;52.618;13.488;2023-09-08T07:37:42;22.10;31.70
13850;DHT22;6995;52.618;13.488;2023-09-08T07:40:11;22.10;29.10
13850;DHT22;6995;52.618;13.488;2023-09-08T07:42:37;22.10;27.50
13850;DHT22;6995;52.618;13.488;2023-09-08T07:45:03;22.10;22.70
13850;DHT22;6995;52.618;13.488;2023-09-08T07:47:28;22.20;22.00
13850;DHT22;6995;52.618;13.488;2023-09-08T07:50:18;22.30;20.30
13850;DHT22;6995;52.618;13.488;2023-09-08T07:52:48;22.30;19.90
13850;DHT22;6995;52.618;13.488;2023-09-08T07:55:14;22.40;14.10
13850;DHT22;6995;52.618;13.488;2023-09-08T07:57:42;22.40;13.60
13850;DHT22;6995;52.618;13.488;2023-09-08T08:00:08;22.50;13.30
13850;DHT22;6995;52.618;13.488;2023-09-08T08:02:41;22.40;11.40
13850;DHT22;6995;52.618;13.488;2023-09-08T08:05:07;22.40;11.80
13850;DHT22;6995;52.618;13.488;2023-09-08T08:07:32;22.50;12.00
13850;DHT22;6995;52.618;13.488;2023-09-08T08:09:58;22.50;11.20
13850;DHT22;6995;52.618;13.488;2023-09-08T08:12:24;22.50;8.60
13850;DHT22;6995;52.618;13.488;2023-09-08T08:14:50;22.60;6.00
13850;DHT22;6995;52.618;13.488;2023-09-08T08:17:15;22.60;4.70
13850;DHT22;6995;52.618;13.488;2023-09-08T08:19:43;22.70;2.40
13850;DHT22;6995;52.618;13.488;2023-09-08T08:22:08;22.70;3.10
13850;DHT22;6995;52.618;13.488;2023-09-08T08:24:34;22.80;1.00
13850;DHT22;6995;52.618;13.488;2023-09-08T08:26:59;22.80;1.00
13850;DHT22;6995;52.618;13.488;2023-09-08T08:29:28;22.80;1.00
13850;DHT22;6995;52.618;13.488;2023-09-08T08:31:54;22.80;1.00
13850;DHT22;6995;52.618;13.488;2023-09-08T08:34:19;22.90;1.00
13850;DHT22;6995;52.618;13.488;2023-09-08T08:36:45;23.00;1.00
13850;DHT22;6995;52.618;13.488;2023-09-08T08:39:11;23.10;1.00
13850;DHT22;6995;52.618;13.488;2023-09-08T08:41:36;23.10;1.00
13850;DHT22;6995;52.618;13.488;2023-09-08T08:44:08;23.20;1.00
13850;DHT22;6995;52.618;13.488;2023-09-08T08:46:35;23.30;1.00
13850;DHT22;6995;52.618;13.488;2023-09-08T08:49:03;23.30;1.00
13850;DHT22;6995;52.618;13.488;2023-09-08T08:51:30;23.40;1.00
13850;DHT22;6995;52.618;13.488;2023-09-08T08:53:56;23.50;1.00
13850;DHT22;6995;52.618;13.488;2023-09-08T08:56:23;23.60;1.00
13850;DHT22;6995;52.618;13.488;2023-09-08T08:58:50;23.70;1.00
13850;DHT22;6995;52.618;13.488;2023-09-08T09:01:16;23.70;1.00
13850;DHT22;6995;52.618;13.488;2023-09-08T09:03:49;23.80;1.00
13850;DHT22;6995;52.618;13.488;2023-09-08T09:06:15;23.90;1.00
13850;DHT22;6995;52.618;13.488;2023-09-08T09:08:43;24.10;1.00
13850;DHT22;6995;52.618;13.488;2023-09-08T09:11:09;24.10;1.00
13850;DHT22;6995;52.618;13.488;2023-09-08T09:13:35;24.30;1.00
13850;DHT22;6995;52.618;13.488;2023-09-08T09:16:01;24.40;1.00
13850;DHT22;6995;52.618;13.488;2023-09-08T09:18:29;24.30;1.00
13850;DHT22;6995;52.618;13.488;2023-09-08T09:20:58;24.30;1.00
13850;DHT22;6995;52.618;13.488;2023-09-08T09:23:30;24.40;1.00
13850;DHT22;6995;52.618;13.488;2023-09-08T09:25:57;24.50;1.00
13850;DHT22;6995;52.618;13.488;2023-09-08T09:28:23;24.60;1.00
13850;DHT22;6995;52.618;13.488;2023-09-08T09:30:50;24.60;1.00
13850;DHT22;6995;52.618;13.488;2023-09-08T09:33:22;24.60;1.00
13850;DHT22;6995;52.618;13.488;2023-09-08T09:35:53;24.70;1.00
13850;DHT22;6995;52.618;13.488;2023-09-08T09:38:20;24.80;1.00
13850;DHT22;6995;52.618;13.488;2023-09-08T09:40:47;24.90;1.00
13850;DHT22;6995;52.618;13.488;2023-09-08T09:43:14;24.90;1.00
13850;DHT22;6995;52.618;13.488;2023-09-08T09:45:42;25.00;1.00
13850;DHT22;6995;52.618;13.488;2023-09-08T09:48:08;25.10;1.00
13850;DHT22;6995;52.618;13.488;2023-09-08T09:50:39;25.20;1.00
13850;DHT22;6995;52.618;13.488;2023-09-08T09:53:13;25.30;1.00
13850;DHT22;6995;52.618;13.488;2023-09-08T09:55:44;25.30;1.00
13850;DHT22;6995;52.618;13.488;2023-09-08T09:58:10;25.40;1.00
13850;DHT22;6995;52.618;13.488;2023-09-08T10:00:37;25.40;1.00
13850;DHT22;6995;52.618;13.488;2023-09-08T10:03:07;25.50;1.00
13850;DHT22;6995;52.618;13.488;2023-09-08T10:05:34;25.50;1.00
13850;DHT22;6995;52.618;13.488;2023-09-08T10:08:00;25.60;1.00
13850;DHT22;6995;52.618;13.488;2023-09-08T10:10:27;25.70;1.00
13850;DHT22;6995;52.618;13.488;2023-09-08T10:13:03;25.80;1.00
13850;DHT22;6995;52.618;13.488;2023-09-08T10:15:31;25.90;1.00
13850;DHT22;6995;52.618;13.488;2023-09-08T10:17:57;25.90;1.00
13850;DHT22;6995;52.618;13.488;2023-09-08T10:20:26;25.90;1.00
13850;DHT22;6995;52.618;13.488;2023-09-08T10:23:29;26.10;1.00
13850;DHT22;6995;52.618;13.488;2023-09-08T10:25:59;26.00;1.00
13850;DHT22;6995;52.618;13.488;2023-09-08T10:28:29;26.10;1.00
13850;DHT22;6995;52.618;13.488;2023-09-08T10:30:55;26.20;1.00
13850;DHT22;6995;52.618;13.488;2023-09-08T10:33:21;26.30;1.00
13850;DHT22;6995;52.618;13.488;2023-09-08T10:35:49;26.30;1.00
13850;DHT22;6995;52.618;13.488;2023-09-08T10:38:28;26.30;1.00
13850;DHT22;6995;52.618;13.488;2023-09-08T10:44:02;26.40;1.00
13850;DHT22;6995;52.618;13.488;2023-09-08T10:46:29;26.40;1.00
13850;DHT22;6995;52.618;13.488;2023-09-08T10:49:06;26.50;1.00
13850;DHT22;6995;52.618;13.488;2023-09-08T10:51:33;26.60;1.00
13850;DHT22;6995;52.618;13.488;2023-09-08T10:53:59;26.70;1.00
13850;DHT22;6995;52.618;13.488;2023-09-08T10:57:02;26.70;1.00
13850;DHT22;6995;52.618;13.488;2023-09-08T10:59:27;26.70;1.00
13850;DHT22;6995;52.618;13.488;2023-09-08T11:01:54;26.70;1.00
13850;DHT22;6995;52.618;13.488;2023-09-08T11:04:21;26.80;1.00
13850;DHT22;6995;52.618;13.488;2023-09-08T11:06:49;26.80;1.00
13850;DHT22;6995;52.618;13.488;2023-09-08T11:09:16;26.80;1.00
13850;DHT22;6995;52.618;13.488;2023-09-08T11:11:41;27.00;1.00
13850;DHT22;6995;52.618;13.488;2023-09-08T11:14:07;27.00;1.00
13850;DHT22;6995;52.618;13.488;2023-09-08T11:16:33;27.10;1.00
13850;DHT22;6995;52.618;13.488;2023-09-08T11:19:00;27.10;1.00
13850;DHT22;6995;52.618;13.488;2023-09-08T11:21:30;27.20;1.00
13850;DHT22;6995;52.618;13.488;2023-09-08T11:24:01;27.20;1.00
13850;DHT22;6995;52.618;13.488;2023-09-08T11:26:27;27.20;1.00
13850;DHT22;6995;52.618;13.488;2023-09-08T11:28:53;27.30;1.00
13850;DHT22;6995;52.618;13.488;2023-09-08T11:31:20;27.20;1.00
13850;DHT22;6995;52.618;13.488;2023-09-08T11:33:48;27.40;1.00
13850;DHT22;6995;52.618;13.488;2023-09-08T11:36:14;27.40;1.00
13850;DHT22;6995;52.618;13.488;2023-09-08T11:38:42;27.50;1.00
13850;DHT22;6995;52.618;13.488;2023-09-08T11:41:08;27.60;1.00
13850;DHT22;6995;52.618;13.488;2023-09-08T11:43:34;27.80;1.00
13850;DHT22;6995;52.618;13.488;2023-09-08T11:46:00;27.80;1.00
13850;DHT22;6995;52.618;13.488;2023-09-08T11:48:26;27.90;1.00
13850;DHT22;6995;52.618;13.488;2023-09-08T11:50:53;28.00;1.00
13850;DHT22;6995;52.618;13.488;2023-09-08T11:53:20;28.10;1.00
13850;DHT22;6995;52.618;13.488;2023-09-08T11:55:46;28.20;1.00
13850;DHT22;6995;52.618;13.488;2023-09-08T11:58:12;28.20;1.00
13850;DHT22;6995;52.618;13.488;2023-09-08T12:00:38;28.30;1.00
13850;DHT22;6995;52.618;13.488;2023-09-08T12:03:14;28.40;1.00
13850;DHT22;6995;52.618;13.488;2023-09-08T12:05:41;28.60;1.00
13850;DHT22;6995;52.618;13.488;2023-09-08T12:08:08;28.80;1.00
13850;DHT22;6995;52.618;13.488;2023-09-08T12:10:41;29.00;1.00
13850;DHT22;6995;52.618;13.488;2023-09-08T12:13:07;29.00;1.00
13850;DHT22;6995;52.618;13.488;2023-09-08T12:15:39;29.30;1.00
13850;DHT22;6995;52.618;13.488;2023-09-08T12:18:07;29.50;1.00
13850;DHT22;6995;52.618;13.488;2023-09-08T12:20:34;29.50;1.00
13850;DHT22;6995;52.618;13.488;2023-09-08T12:23:05;29.60;1.00
13850;DHT22;6995;52.618;13.488;2023-09-08T12:25:32;29.80;1.00
13850;DHT22;6995;52.618;13.488;2023-09-08T12:27:59;30.10;1.00
13850;DHT22;6995;52.618;13.488;2023-09-08T12:30:25;30.30;1.00
13850;DHT22;6995;52.618;13.488;2023-09-08T12:33:01;30.50;1.00
13850;DHT22;6995;52.618;13.488;2023-09-08T12:35:28;30.80;1.00
13850;DHT22;6995;52.618;13.488;2023-09-08T12:37:58;30.70;1.00
13850;DHT22;6995;52.618;13.488;2023-09-08T12:40:26;30.80;1.00
13850;DHT22;6995;52.618;13.488;2023-09-08T12:42:52;31.50;1.00
13850;DHT22;6995;52.618;13.488;2023-09-08T12:45:19;32.20;1.00
13850;DHT22;6995;52.618;13.488;2023-09-08T12:47:45;32.70;1.00
13850;DHT22;6995;52.618;13.488;2023-09-08T12:50:11;33.10;1.00
13850;DHT22;6995;52.618;13.488;2023-09-08T12:52:38;33.20;1.00
13850;DHT22;6995;52.618;13.488;2023-09-08T12:55:04;33.20;1.00
13850;DHT22;6995;52.618;13.488;2023-09-08T12:57:30;33.40;1.00
13850;DHT22;6995;52.618;13.488;2023-09-08T12:59:56;33.80;1.00
13850;DHT22;6995;52.618;13.488;2023-09-08T13:02:21;33.80;1.00
13850;DHT22;6995;52.618;13.488;2023-09-08T13:04:47;33.60;1.00
13850;DHT22;6995;52.618;13.488;2023-09-08T13:07:17;33.70;1.00
13850;DHT22;6995;52.618;13.488;2023-09-08T13:09:43;34.20;1.00
13850;DHT22;6995;52.618;13.488;2023-09-08T13:12:09;34.50;1.00
13850;DHT22;6995;52.618;13.488;2023-09-08T13:14:36;34.60;1.00
13850;DHT22;6995;52.618;13.488;2023-09-08T13:17:02;35.00;1.00
13850;DHT22;6995;52.618;13.488;2023-09-08T13:19:27;35.00;1.00
13850;DHT22;6995;52.618;13.488;2023-09-08T13:21:53;35.30;1.00
13850;DHT22;6995;52.618;13.488;2023-09-08T13:24:18;35.70;1.00
13850;DHT22;6995;52.618;13.488;2023-09-08T13:26:46;35.90;1.00
13850;DHT22;6995;52.618;13.488;2023-09-08T13:29:11;36.30;1.00
13850;DHT22;6995;52.618;13.488;2023-09-08T13:31:37;36.20;1.00
13850;DHT22;6995;52.618;13.488;2023-09-08T13:34:03;36.40;1.00
13850;DHT22;6995;52.618;13.488;2023-09-08T13:36:28;36.00;1.00
13850;DHT22;6995;52.618;13.488;2023-09-08T13:38:54;35.50;1.00
13850;DHT22;6995;52.618;13.488;2023-09-08T13:41:19;35.80;1.00
13850;DHT22;6995;52.618;13.488;2023-09-08T13:43:45;36.10;1.00
13850;DHT22;6995;52.618;13.488;2023-09-08T13:46:11;36.10;1.00
13850;DHT22;6995;52.618;13.488;2023-09-08T13:48:36;35.80;1.00
13850;DHT22;6995;52.618;13.488;2023-09-08T13:51:02;36.30;1.00
13850;DHT22;6995;52.618;13.488;2023-09-08T13:53:29;36.30;1.00
13850;DHT22;6995;52.618;13.488;2023-09-08T13:55:56;36.50;1.00
13850;DHT22;6995;52.618;13.488;2023-09-08T13:58:22;36.80;1.00
13850;DHT22;6995;52.618;13.488;2023-09-08T14:00:47;36.30;1.00
13850;DHT22;6995;52.618;13.488;2023-09-08T14:03:19;36.50;1.00
13850;DHT22;6995;52.618;13.488;2023-09-08T14:05:44;36.30;1.00
13850;DHT22;6995;52.618;13.488;2023-09-08T14:08:10;36.00;1.00
13850;DHT22;6995;52.618;13.488;2023-09-08T14:10:36;36.10;1.00
13850;DHT22;6995;52.618;13.488;2023-09-08T14:13:02;36.20;1.00
13850;DHT22;6995;52.618;13.488;2023-09-08T14:15:27;36.60;1.00
13850;DHT22;6995;52.618;13.488;2023-09-08T14:17:53;37.10;1.00
13850;DHT22;6995;52.618;13.488;2023-09-08T14:20:19;37.20;1.00
13850;DHT22;6995;52.618;13.488;2023-09-08T14:22:44;36.60;1.00
13850;DHT22;6995;52.618;13.488;2023-09-08T14:25:10;36.50;1.00
13850;DHT22;6995;52.618;13.488;2023-09-08T14:27:36;36.40;1.00
13850;DHT22;6995;52.618;13.488;2023-09-08T14:30:04;36.10;1.00
13850;DHT22;6995;52.618;13.488;2023-09-08T14:32:30;35.60;1.00
13850;DHT22;6995;52.618;13.488;2023-09-08T14:34:56;35.00;1.00
13850;DHT22;6995;52.618;13.488;2023-09-08T14:37:22;34.70;1.00
13850;DHT22;6995;52.618;13.488;2023-09-08T14:39:48;34.20;1.00
13850;DHT22;6995;52.618;13.488;2023-09-08T14:42:14;33.70;1.00
13850;DHT22;6995;52.618;13.488;2023-09-08T14:44:41;33.10;1.00
13850;DHT22;6995;52.618;13.488;2023-09-08T14:47:07;32.30;1.00
13850;DHT22;6995;52.618;13.488;2023-09-08T14:49:32;32.10;1.00
13850;DHT22;6995;52.618;13.488;2023-09-08T14:51:58;31.70;1.00
13850;DHT22;6995;52.618;13.488;2023-09-08T14:54:24;31.30;1.00
13850;DHT22;6995;52.618;13.488;2023-09-08T14:56:51;30.90;1.00
13850;DHT22;6995;52.618;13.488;2023-09-08T14:59:16;30.40;1.00
13850;DHT22;6995;52.618;13.488;2023-09-08T15:01:42;30.20;1.00
13850;DHT22;6995;52.618;13.488;2023-09-08T15:04:10;30.10;1.00
13850;DHT22;6995;52.618;13.488;2023-09-08T15:06:36;29.80;1.00
13850;DHT22;6995;52.618;13.488;2023-09-08T15:09:01;29.60;1.00
13850;DHT22;6995;52.618;13.488;2023-09-08T15:11:27;29.40;1.00
13850;DHT22;6995;52.618;13.488;2023-09-08T15:13:53;29.20;1.00
13850;DHT22;6995;52.618;13.488;2023-09-08T15:16:18;29.40;1.00
13850;DHT22;6995;52.618;13.488;2023-09-08T15:18:44;29.30;1.00
13850;DHT22;6995;52.618;13.488;2023-09-08T15:21:10;29.30;1.00
13850;DHT22;6995;52.618;13.488;2023-09-08T15:23:35;29.30;1.00
13850;DHT22;6995;52.618;13.488;2023-09-08T15:26:01;29.30;1.00
13850;DHT22;6995;52.618;13.488;2023-09-08T15:28:27;29.20;1.00
13850;DHT22;6995;52.618;13.488;2023-09-08T15:30:54;29.20;1.00
13850;DHT22;6995;52.618;13.488;2023-09-08T15:33:20;29.40;1.00
13850;DHT22;6995;52.618;13.488;2023-09-08T15:35:47;29.90;1.00
13850;DHT22;6995;52.618;13.488;2023-09-08T15:38:14;30.20;1.00
13850;DHT22;6995;52.618;13.488;2023-09-08T15:43:40;30.00;1.00
13850;DHT22;6995;52.618;13.488;2023-09-08T15:46:07;29.90;1.00